createdAt,value
2019-06-08T00:02:14.696Z,11.43
2019-06-08T00:04:42.065Z,13.50
2019-06-08T00:07:09.333Z,15.10
2019-06-08T00:09:36.717Z,13.53
2019-06-08T00:12:04.168Z,14.07
2019-06-08T00:14:31.512Z,16.70
2019-06-08T00:16:58.828Z,16.00
2019-06-08T00:19:26.114Z,13.57
2019-06-08T00:21:53.399Z,13.40
2019-06-08T00:24:21.851Z,13.23
2019-06-08T00:26:49.361Z,16.73
2019-06-08T00:29:16.638Z,14.50
2019-06-08T00:31:44.033Z,18.83
2019-06-08T00:34:11.384Z,20.03
2019-06-08T00:36:38.663Z,14.10
2019-06-08T00:39:07.608Z,15.57
2019-06-08T00:41:34.890Z,14.13
2019-06-08T00:44:02.178Z,14.50
2019-06-08T00:46:29.486Z,16.67
2019-06-08T00:48:56.773Z,19.50
2019-06-08T00:51:25.454Z,15.57
2019-06-08T00:53:54.793Z,14.23
2019-06-08T00:56:22.121Z,14.97
2019-06-08T00:58:49.469Z,15.93
2019-06-08T01:01:20.172Z,13.00
2019-06-08T01:03:45.782Z,13.70
2019-06-08T01:06:13.062Z,14.87
2019-06-08T01:08:40.451Z,13.10
2019-06-08T01:11:07.801Z,15.23
2019-06-08T01:13:35.153Z,14.43
2019-06-08T01:16:02.524Z,13.27
2019-06-08T01:18:29.801Z,16.33
2019-06-08T01:20:57.081Z,13.83
2019-06-08T01:23:25.553Z,15.70
2019-06-08T01:25:53.090Z,18.00
2019-06-08T01:28:20.373Z,14.33
2019-06-08T01:30:47.665Z,14.10
2019-06-08T01:33:15.824Z,14.53
2019-06-08T01:35:43.216Z,16.90
2019-06-08T01:38:10.602Z,13.73
2019-06-08T01:40:38.196Z,14.53
2019-06-08T01:43:05.545Z,22.57
2019-06-08T01:45:33.568Z,15.40
2019-06-08T01:48:15.946Z,24.40
2019-06-08T01:50:32.658Z,15.20
2019-06-08T01:53:00.764Z,19.30
2019-06-08T01:55:29.011Z,14.80
2019-06-08T01:57:56.589Z,14.40
2019-06-08T02:00:37.733Z,14.40
2019-06-08T02:02:53.176Z,14.17
2019-06-08T02:05:20.628Z,16.10
2019-06-08T02:07:47.992Z,14.30
2019-06-08T02:10:15.346Z,17.90
2019-06-08T02:12:42.624Z,17.43
2019-06-08T02:15:10.095Z,15.30
2019-06-08T02:17:37.436Z,17.07
2019-06-08T02:20:07.666Z,15.17
2019-06-08T02:22:35.188Z,16.30
2019-06-08T02:25:02.668Z,16.27
2019-06-08T02:27:31.343Z,15.63
2019-06-08T02:29:58.774Z,15.50
2019-06-08T02:32:26.056Z,17.90
2019-06-08T02:34:53.406Z,17.10
2019-06-08T02:37:21.005Z,15.47
2019-06-08T02:39:48.366Z,15.37
2019-06-08T02:42:15.826Z,17.10
2019-06-08T02:44:43.134Z,19.90
2019-06-08T02:47:10.556Z,14.17
2019-06-08T02:49:39.643Z,15.77
2019-06-08T02:52:07.105Z,15.30
2019-06-08T02:54:35.432Z,16.27
2019-06-08T02:57:04.249Z,16.23
2019-06-08T02:59:33.096Z,14.23
2019-06-08T03:02:01.406Z,20.43
2019-06-08T03:04:32.251Z,13.90
2019-06-08T03:07:01.010Z,15.10
2019-06-08T03:09:28.357Z,20.57
2019-06-08T03:11:55.797Z,22.00
2019-06-08T03:14:24.729Z,13.33
2019-06-08T03:16:52.295Z,14.53
2019-06-08T03:19:22.287Z,14.57
2019-06-08T03:21:48.614Z,15.53
2019-06-08T03:24:15.964Z,14.47
2019-06-08T03:26:44.192Z,13.80
2019-06-08T03:29:11.702Z,18.23
2019-06-08T03:31:46.117Z,15.83
2019-06-08T03:34:08.080Z,16.10
2019-06-08T03:36:40.323Z,16.20
2019-06-08T03:39:06.013Z,13.53
2019-06-08T03:41:34.403Z,12.73
2019-06-08T03:44:02.449Z,10.97
2019-06-08T03:46:29.725Z,13.10
2019-06-08T03:48:57.017Z,17.03
2019-06-08T03:51:24.335Z,12.87
2019-06-08T03:53:51.745Z,12.37
2019-06-08T03:56:19.022Z,14.57
2019-06-08T03:58:47.868Z,14.10
2019-06-08T04:01:15.350Z,20.27
2019-06-08T04:03:43.905Z,17.80
2019-06-08T04:06:11.471Z,16.20
2019-06-08T04:08:40.904Z,12.80
2019-06-08T04:11:07.751Z,18.13
2019-06-08T04:13:35.105Z,14.40
2019-06-08T04:16:02.468Z,15.43
2019-06-08T04:18:29.815Z,14.83
2019-06-08T04:20:57.120Z,17.37
2019-06-08T04:23:24.401Z,15.43
2019-06-08T04:25:51.777Z,19.63
2019-06-08T04:28:19.062Z,14.03
2019-06-08T04:30:49.173Z,15.20
2019-06-08T04:33:15.625Z,13.13
2019-06-08T04:35:44.766Z,12.67
2019-06-08T04:38:11.978Z,13.47
2019-06-08T04:40:40.062Z,16.13
2019-06-08T04:43:08.357Z,16.23
2019-06-08T04:45:35.629Z,12.93
2019-06-08T04:48:03.015Z,16.70
2019-06-08T04:50:30.365Z,13.83
2019-06-08T04:52:57.645Z,13.67
2019-06-08T04:55:24.953Z,13.73
2019-06-08T04:57:52.246Z,13.23
2019-06-08T05:00:19.694Z,16.43
2019-06-08T05:02:48.793Z,14.50
2019-06-08T05:05:15.973Z,18.67
2019-06-08T05:07:44.273Z,11.60
2019-06-08T05:10:13.218Z,16.20
2019-06-08T05:12:41.235Z,11.80
2019-06-08T05:15:09.591Z,12.47
2019-06-08T05:17:36.938Z,10.70
2019-06-08T05:20:07.341Z,10.97
2019-06-08T05:22:34.626Z,11.47
2019-06-08T05:25:01.918Z,11.10
2019-06-08T05:27:29.284Z,10.40
2019-06-08T05:29:56.560Z,11.70
2019-06-08T05:32:23.838Z,13.30
2019-06-08T05:34:51.121Z,17.40
2019-06-08T05:37:18.389Z,17.90
2019-06-08T05:39:45.848Z,10.10
2019-06-08T05:42:13.144Z,11.40
2019-06-08T05:44:41.592Z,12.30
2019-06-08T05:47:09.093Z,12.53
2019-06-08T05:49:36.465Z,15.80
2019-06-08T05:52:03.837Z,8.80
2019-06-08T05:56:59.570Z,9.70
2019-06-08T05:59:26.861Z,9.10
2019-06-08T06:01:54.466Z,12.17
2019-06-08T06:04:21.737Z,12.27
2019-06-08T06:06:49.242Z,12.00
2019-06-08T06:09:16.715Z,8.97
2019-06-08T06:11:44.782Z,8.87
2019-06-08T06:14:12.221Z,13.73
2019-06-08T06:16:40.810Z,11.70
2019-06-08T06:19:08.274Z,9.50
2019-06-08T06:21:35.544Z,8.27
2019-06-08T06:24:02.909Z,9.50
2019-06-08T06:26:30.189Z,14.00
2019-06-08T06:28:58.285Z,13.93
2019-06-08T06:31:25.557Z,8.50
2019-06-08T06:33:52.888Z,9.30
2019-06-08T06:36:20.269Z,13.53
2019-06-08T06:38:48.108Z,10.53
2019-06-08T06:41:15.865Z,7.60
2019-06-08T06:43:43.975Z,12.20
2019-06-08T06:46:11.366Z,12.13
2019-06-08T06:48:38.631Z,9.83
2019-06-08T06:51:05.957Z,12.00
2019-06-08T06:53:33.481Z,12.00
2019-06-08T06:56:00.761Z,8.20
2019-06-08T06:58:28.081Z,12.73
2019-06-08T07:00:55.587Z,7.67
2019-06-08T07:03:22.854Z,14.70
2019-06-08T07:05:50.137Z,10.90
2019-06-08T07:08:17.406Z,8.30
2019-06-08T07:10:44.735Z,8.30
2019-06-08T07:13:12.073Z,7.77
2019-06-08T07:15:41.690Z,7.30
2019-06-08T07:18:08.347Z,6.67
2019-06-08T07:20:35.676Z,6.63
2019-06-08T07:23:02.973Z,7.87
2019-06-08T07:25:30.245Z,10.53
2019-06-08T07:27:59.150Z,11.20
2019-06-08T07:30:26.731Z,6.13
2019-06-08T07:32:55.129Z,7.90
2019-06-08T07:35:22.593Z,12.27
2019-06-08T07:37:50.566Z,8.83
2019-06-08T07:40:19.206Z,8.90
2019-06-08T07:42:47.856Z,6.13
2019-06-08T07:45:15.942Z,5.77
2019-06-08T07:47:43.208Z,6.50
2019-06-08T07:50:10.649Z,9.73
2019-06-08T07:52:38.086Z,5.60
2019-06-08T07:55:05.516Z,6.97
2019-06-08T07:57:32.796Z,9.10
2019-06-08T08:00:00.278Z,11.93
2019-06-08T08:02:27.816Z,6.87
2019-06-08T08:04:56.607Z,7.50
2019-06-08T08:07:24.206Z,5.60
2019-06-08T08:09:53.169Z,9.30
2019-06-08T08:12:20.633Z,9.47
2019-06-08T08:14:48.758Z,8.43
2019-06-08T08:17:16.139Z,5.27
2019-06-08T08:19:43.458Z,6.10
2019-06-08T08:22:22.038Z,4.80
2019-06-08T08:24:39.737Z,6.67
2019-06-08T08:27:08.447Z,6.57
2019-06-08T08:29:38.289Z,11.20
2019-06-08T08:32:07.241Z,8.50
2019-06-08T08:34:34.080Z,7.63
2019-06-08T08:37:06.059Z,8.63
2019-06-08T08:39:30.380Z,6.23
2019-06-08T08:42:04.404Z,8.00
2019-06-08T08:44:28.329Z,9.10
2019-06-08T08:46:56.987Z,8.00
2019-06-08T08:49:24.798Z,7.10
2019-06-08T08:51:52.261Z,9.37
2019-06-08T08:54:19.534Z,11.10
2019-06-08T08:56:50.478Z,10.30
2019-06-08T08:59:17.751Z,7.93
2019-06-08T09:01:44.916Z,6.87
2019-06-08T09:04:12.187Z,5.67
2019-06-08T09:06:39.651Z,10.23
2019-06-08T09:09:08.905Z,9.97
2019-06-08T09:11:40.837Z,12.60
2019-06-08T09:14:10.964Z,9.10
2019-06-08T09:16:34.287Z,7.50
2019-06-08T09:19:04.809Z,7.00
2019-06-08T09:21:32.338Z,8.63
2019-06-08T09:24:03.507Z,6.43
2019-06-08T09:26:31.299Z,7.23
2019-06-08T09:28:58.453Z,6.20
2019-06-08T09:31:28.199Z,8.80
2019-06-08T09:34:01.326Z,7.17
2019-06-08T09:36:23.905Z,9.60
2019-06-08T09:38:53.250Z,4.97
2019-06-08T09:41:20.291Z,7.30
2019-06-08T09:43:48.731Z,8.93
2019-06-08T09:46:17.910Z,9.57
2019-06-08T09:48:45.302Z,7.30
2019-06-08T09:51:12.593Z,6.63
2019-06-08T09:53:41.561Z,7.37
2019-06-08T09:56:09.698Z,12.57
2019-06-08T09:58:39.108Z,7.53
2019-06-08T10:01:09.173Z,7.30
2019-06-08T10:03:35.574Z,6.60
2019-06-08T10:06:07.016Z,13.60
2019-06-08T10:08:31.953Z,9.67
2019-06-08T10:11:01.550Z,6.80
2019-06-08T10:13:30.568Z,6.50
2019-06-08T10:16:01.947Z,8.40
2019-06-08T10:18:28.532Z,9.03
2019-06-08T10:20:58.066Z,10.23
2019-06-08T10:23:31.874Z,15.00
2019-06-08T10:25:54.815Z,11.30
2019-06-08T10:28:22.411Z,10.50
2019-06-08T10:30:49.760Z,17.47
2019-06-08T10:33:18.484Z,11.00
2019-06-08T10:35:47.947Z,11.80
2019-06-08T10:38:14.977Z,14.80
2019-06-08T10:41:06.567Z,11.13
2019-06-08T10:43:29.781Z,11.03
2019-06-08T10:46:00.187Z,13.00
2019-06-08T10:48:27.646Z,9.40
2019-06-08T10:50:57.981Z,11.13
2019-06-08T10:53:24.321Z,10.17
2019-06-08T10:55:51.709Z,12.17
2019-06-08T10:58:19.502Z,17.53
2019-06-08T11:00:48.070Z,9.23
2019-06-08T11:03:15.634Z,10.97
2019-06-08T11:05:42.902Z,10.03
2019-06-08T11:08:14.163Z,17.57
2019-06-08T11:10:39.343Z,9.73
2019-06-08T11:13:13.245Z,13.10
2019-06-08T11:15:37.829Z,16.40
2019-06-08T11:18:07.081Z,9.43
2019-06-08T11:20:34.007Z,13.37
2019-06-08T11:23:02.449Z,10.57
2019-06-08T11:25:30.377Z,9.40
2019-06-08T11:27:58.635Z,10.50
2019-06-08T11:30:30.220Z,10.20
2019-06-08T11:32:57.645Z,11.33
2019-06-08T11:35:24.684Z,12.60
2019-06-08T11:37:52.029Z,10.63
2019-06-08T11:40:20.763Z,8.43
2019-06-08T11:42:48.581Z,12.87
2019-06-08T11:45:17.781Z,9.70
2019-06-08T11:47:45.267Z,12.43
2019-06-08T11:50:13.496Z,13.27
2019-06-08T11:52:41.006Z,11.27
2019-06-08T11:55:11.197Z,11.20
2019-06-08T11:57:40.468Z,12.90
2019-06-08T12:00:17.496Z,13.83
2019-06-08T12:02:38.332Z,13.50
2019-06-08T12:05:08.697Z,10.27
2019-06-08T12:07:35.413Z,16.53
2019-06-08T12:10:03.064Z,11.37
2019-06-08T12:12:30.728Z,10.13
2019-06-08T12:14:58.344Z,10.73
2019-06-08T12:17:27.627Z,11.10
2019-06-08T12:19:54.772Z,10.40
2019-06-08T12:22:22.054Z,12.90
2019-06-08T12:24:51.061Z,12.40
2019-06-08T12:27:29.471Z,12.27
2019-06-08T12:29:50.230Z,9.43
2019-06-08T12:32:18.372Z,11.43
2019-06-08T12:34:45.519Z,9.97
2019-06-08T12:37:17.476Z,12.83
2019-06-08T12:39:41.825Z,10.73
2019-06-08T12:42:15.628Z,10.30
2019-06-08T12:44:38.433Z,10.80
2019-06-08T12:47:07.980Z,10.33
2019-06-08T12:49:34.957Z,10.53
2019-06-08T12:52:02.313Z,12.00
2019-06-08T12:54:29.700Z,12.63
2019-06-08T12:56:57.956Z,10.07
2019-06-08T12:59:28.158Z,9.10
2019-06-08T13:01:55.000Z,11.20
2019-06-08T13:04:23.887Z,9.30
2019-06-08T13:06:51.437Z,11.73
2019-06-08T13:09:20.555Z,15.03
2019-06-08T13:11:50.506Z,12.40
2019-06-08T13:14:19.015Z,8.90
2019-06-08T13:16:45.946Z,8.50
2019-06-08T13:19:14.718Z,8.83
2019-06-08T13:21:42.245Z,10.00
2019-06-08T13:24:10.188Z,8.03
2019-06-08T13:26:38.601Z,12.00
2019-06-08T13:29:08.747Z,9.80
2019-06-08T13:31:35.142Z,11.17
2019-06-08T13:34:02.404Z,8.03
2019-06-08T13:36:30.091Z,11.97
2019-06-08T13:38:57.492Z,10.00
2019-06-08T13:41:29.026Z,10.77
2019-06-08T13:43:54.361Z,11.40
2019-06-08T13:46:23.525Z,10.53
2019-06-08T13:48:50.685Z,12.17
2019-06-08T13:51:20.751Z,9.33
2019-06-08T13:53:47.821Z,10.50
2019-06-08T13:56:18.951Z,9.80
2019-06-08T13:58:45.289Z,6.80
2019-06-08T14:01:13.404Z,7.03
2019-06-08T14:03:40.813Z,7.33
2019-06-08T14:06:08.084Z,9.80
2019-06-08T14:08:35.536Z,7.90
2019-06-08T14:11:02.890Z,7.53
2019-06-08T14:13:34.305Z,12.60
2019-06-08T14:15:59.309Z,10.47
2019-06-08T14:18:33.415Z,9.73
2019-06-08T14:20:58.510Z,12.13
2019-06-08T14:23:25.664Z,9.27
2019-06-08T14:25:56.678Z,6.77
2019-06-08T14:28:23.289Z,5.20
2019-06-08T14:30:51.141Z,5.57
2019-06-08T14:33:24.167Z,5.83
2019-06-08T14:35:47.396Z,5.70
2019-06-08T14:38:14.700Z,8.40
2019-06-08T14:40:41.968Z,4.33
2019-06-08T14:43:10.861Z,7.40
2019-06-08T14:45:38.603Z,9.23
2019-06-08T14:48:05.913Z,8.27
2019-06-08T14:50:33.262Z,5.23
2019-06-08T14:53:00.648Z,5.77
2019-06-08T14:55:33.899Z,7.00
2019-06-08T14:57:58.496Z,7.87
2019-06-08T15:00:25.789Z,5.33
2019-06-08T15:02:53.056Z,2.77
2019-06-08T15:05:21.428Z,4.70
2019-06-08T15:07:48.905Z,8.13
2019-06-08T15:10:18.228Z,4.83
2019-06-08T15:12:45.235Z,10.70
2019-06-08T15:15:12.617Z,4.40
2019-06-08T15:17:39.949Z,4.30
2019-06-08T15:20:08.883Z,5.60
2019-06-08T15:22:38.714Z,4.53
2019-06-08T15:25:08.213Z,7.40
2019-06-08T15:27:34.889Z,3.13
2019-06-08T15:30:02.348Z,3.47
2019-06-08T15:32:34.974Z,13.57
2019-06-08T15:34:59.060Z,4.00
2019-06-08T15:37:28.137Z,3.10
2019-06-08T15:39:55.353Z,3.70
2019-06-08T15:42:24.177Z,5.10
2019-06-08T15:44:51.705Z,3.03
2019-06-08T15:47:18.980Z,4.70
2019-06-08T15:49:50.207Z,4.60
2019-06-08T15:52:17.410Z,5.40
2019-06-08T15:54:44.234Z,5.33
2019-06-08T15:57:11.588Z,8.67
2019-06-08T15:59:41.902Z,4.20
2019-06-08T16:02:07.925Z,3.70
2019-06-08T16:04:35.208Z,3.00
2019-06-08T16:07:02.607Z,10.10
2019-06-08T16:09:30.027Z,5.33
2019-06-08T16:11:59.510Z,5.10
2019-06-08T16:14:26.712Z,13.93
2019-06-08T16:16:54.053Z,7.13
2019-06-08T16:19:21.356Z,4.13
2019-06-08T16:21:48.620Z,3.60
2019-06-08T16:24:15.898Z,6.20
2019-06-08T16:26:52.708Z,6.00
2019-06-08T16:29:12.561Z,3.70
2019-06-08T16:31:39.825Z,3.07
2019-06-08T16:34:07.397Z,3.27
2019-06-08T16:36:35.618Z,4.37
2019-06-08T16:39:04.581Z,2.47
2019-06-08T16:41:32.107Z,2.40
2019-06-08T16:43:59.612Z,2.97
2019-06-08T16:46:30.117Z,3.97
2019-06-08T16:48:57.545Z,3.53
2019-06-08T16:51:24.810Z,6.10
2019-06-08T16:53:52.072Z,4.80
2019-06-08T16:56:19.364Z,6.00
2019-06-08T16:58:46.627Z,3.03
2019-06-08T17:01:13.894Z,7.40
2019-06-08T17:03:41.511Z,4.37
2019-06-08T17:06:08.920Z,7.37
2019-06-08T17:08:39.186Z,3.00
2019-06-08T17:11:05.384Z,4.17
2019-06-08T17:13:33.981Z,6.40
2019-06-08T17:16:01.433Z,4.13
2019-06-08T17:18:29.868Z,6.27
2019-06-08T17:20:57.347Z,4.37
2019-06-08T17:23:24.717Z,2.70
2019-06-08T17:25:52.004Z,2.80
2019-06-08T17:28:20.093Z,2.40
2019-06-08T17:30:47.364Z,6.13
2019-06-08T17:33:14.673Z,3.43
2019-06-08T17:35:42.411Z,2.90
2019-06-08T17:38:09.799Z,3.10
2019-06-08T17:40:38.092Z,3.83
2019-06-08T17:43:05.604Z,3.93
2019-06-08T17:45:34.147Z,2.50
2019-06-08T17:48:01.852Z,2.60
2019-06-08T17:50:29.123Z,6.97
2019-06-08T17:52:56.386Z,2.47
2019-06-08T17:55:23.676Z,6.10
2019-06-08T17:57:53.408Z,2.67
2019-06-08T18:00:21.614Z,3.57
2019-06-08T18:02:49.000Z,2.67
2019-06-08T18:05:17.983Z,3.87
2019-06-08T18:07:46.335Z,2.73
2019-06-08T18:10:14.472Z,3.53
2019-06-08T18:12:44.595Z,2.30
2019-06-08T18:15:11.338Z,3.30
2019-06-08T18:17:41.981Z,3.00
2019-06-08T18:20:09.444Z,4.83
2019-06-08T18:22:39.115Z,2.53
2019-06-08T18:25:07.803Z,2.00
2019-06-08T18:27:38.038Z,2.90
2019-06-08T18:30:10.918Z,3.67
2019-06-08T18:32:34.786Z,2.37
2019-06-08T18:35:02.129Z,2.80
2019-06-08T18:37:29.425Z,3.80
2019-06-08T18:39:57.839Z,4.50
2019-06-08T18:42:27.010Z,2.83
2019-06-08T18:44:54.401Z,5.30
2019-06-08T18:47:21.677Z,4.27
2019-06-08T18:49:48.981Z,2.30
2019-06-08T18:52:17.638Z,2.00
2019-06-08T18:54:46.766Z,3.50
2019-06-08T18:57:14.378Z,5.13
2019-06-08T18:59:45.133Z,3.03
2019-06-08T19:02:10.660Z,3.17
2019-06-08T19:04:40.274Z,1.60
2019-06-08T19:07:07.874Z,4.53
2019-06-08T19:09:37.501Z,2.50
2019-06-08T19:12:04.417Z,3.20
2019-06-08T19:14:31.747Z,4.27
2019-06-08T19:16:59.009Z,4.83
2019-06-08T19:19:28.503Z,2.23
2019-06-08T19:21:55.295Z,3.17
2019-06-08T19:24:22.561Z,3.00
2019-06-08T19:26:49.863Z,1.87
2019-06-08T19:29:19.494Z,3.00
2019-06-08T19:31:50.016Z,4.93
2019-06-08T19:34:18.196Z,2.30
2019-06-08T19:36:48.413Z,7.10
2019-06-08T19:39:13.968Z,3.53
2019-06-08T19:41:42.470Z,5.30
2019-06-08T19:44:09.996Z,5.83
2019-06-08T19:46:38.204Z,5.17
2019-06-08T19:49:07.864Z,2.57
2019-06-08T19:51:34.663Z,5.10
2019-06-08T19:54:01.929Z,4.00
2019-06-08T19:56:29.236Z,3.10
2019-06-08T19:59:04.019Z,2.73
2019-06-08T20:01:27.667Z,4.27
2019-06-08T20:03:54.652Z,3.30
2019-06-08T20:06:21.959Z,5.17
2019-06-08T20:08:53.369Z,5.47
2019-06-08T20:11:20.675Z,3.70
2019-06-08T20:13:49.990Z,2.67
2019-06-08T20:16:17.384Z,2.40
2019-06-08T20:18:46.253Z,2.37
2019-06-08T20:21:13.821Z,2.63
2019-06-08T20:23:41.187Z,2.97
2019-06-08T20:26:08.546Z,2.87
2019-06-08T20:28:37.258Z,2.77
2019-06-08T20:31:07.260Z,2.10
2019-06-08T20:33:34.176Z,4.30
2019-06-08T20:36:01.453Z,2.90
2019-06-08T20:38:38.445Z,3.97
2019-06-08T20:41:00.680Z,3.10
2019-06-08T20:43:27.950Z,3.20
2019-06-08T20:45:57.368Z,3.73
2019-06-08T20:48:24.335Z,2.20
2019-06-08T20:50:52.564Z,2.43
2019-06-08T20:53:21.259Z,3.63
2019-06-08T20:55:50.588Z,3.43
2019-06-08T20:58:17.735Z,5.00
2019-06-08T21:00:46.113Z,4.90
2019-06-08T21:03:14.079Z,2.40
2019-06-08T21:05:41.381Z,2.40
2019-06-08T21:08:08.649Z,3.70
2019-06-08T21:10:37.803Z,3.43
2019-06-08T21:13:07.273Z,4.03
2019-06-08T21:15:34.184Z,2.40
2019-06-08T21:18:01.489Z,4.97
2019-06-08T21:20:28.765Z,3.53
2019-06-08T21:22:59.497Z,2.20
2019-06-08T21:25:25.068Z,2.67
2019-06-08T21:27:52.920Z,3.77
2019-06-08T21:30:24.479Z,4.43
2019-06-08T21:32:53.053Z,3.40
2019-06-08T21:35:19.386Z,4.23
2019-06-08T21:37:50.692Z,4.30
2019-06-08T21:40:17.578Z,6.37
2019-06-08T21:42:44.682Z,2.17
2019-06-08T21:45:11.959Z,2.47
2019-06-08T21:47:39.239Z,3.57
2019-06-08T21:50:08.078Z,8.07
2019-06-08T21:52:35.566Z,4.43
2019-06-08T21:55:02.911Z,4.03
2019-06-08T21:57:30.241Z,2.90
2019-06-08T22:00:18.780Z,4.10
2019-06-08T22:02:26.613Z,2.80
2019-06-08T22:04:58.995Z,2.70
2019-06-08T22:07:23.289Z,5.10
2019-06-08T22:09:50.557Z,2.27
2019-06-08T22:12:17.825Z,9.83
2019-06-08T22:14:47.207Z,4.07
2019-06-08T22:17:16.140Z,3.00
2019-06-08T22:19:43.371Z,2.97
2019-06-08T22:22:10.696Z,3.80
2019-06-08T22:24:38.446Z,3.03
2019-06-08T22:27:07.196Z,2.73
2019-06-08T22:29:34.802Z,3.33
2019-06-08T22:32:02.126Z,4.50
2019-06-08T22:34:29.397Z,4.37
2019-06-08T22:36:58.696Z,6.00
2019-06-08T22:39:27.976Z,4.63
2019-06-08T22:41:56.071Z,7.40
2019-06-08T22:44:23.712Z,5.43
2019-06-08T22:46:50.985Z,5.63
2019-06-08T22:49:18.661Z,7.97
2019-06-08T22:51:47.719Z,3.50
2019-06-08T22:54:17.053Z,2.87
2019-06-08T22:56:44.229Z,11.73
2019-06-08T22:59:11.532Z,3.20
2019-06-08T23:01:38.794Z,4.97
2019-06-08T23:04:08.835Z,4.37
2019-06-08T23:06:35.449Z,9.10
2019-06-08T23:09:04.061Z,6.27
2019-06-08T23:11:31.772Z,6.17
2019-06-08T23:14:01.062Z,4.27
2019-06-08T23:16:28.467Z,5.60
2019-06-08T23:18:57.657Z,4.10
2019-06-08T23:21:24.789Z,3.60
2019-06-08T23:23:52.062Z,4.60
2019-06-08T23:26:19.506Z,3.17
2019-06-08T23:28:47.207Z,9.03
2019-06-08T23:31:24.643Z,3.00
2019-06-08T23:33:43.654Z,3.50
2019-06-08T23:38:39.942Z,5.20
2019-06-08T23:41:09.942Z,3.90
2019-06-08T23:43:38.304Z,3.33
2019-06-08T23:46:05.718Z,3.53
2019-06-08T23:48:33.193Z,3.47
2019-06-08T23:51:00.552Z,5.77
2019-06-08T23:53:27.833Z,3.80
2019-06-08T23:55:55.097Z,5.30
2019-06-08T23:58:22.471Z,5.13
